Time;durP1;ratioP1;P1;durP2;ratioP2;P2;SDS_P1;SDS_P2;PMS_P1;PMS_P2;Temp;Humidity;BMP_temperature;BMP_pressure;BME280_temperature;BME280_humidity;BME280_pressure;Samples;Min_cycle;Max_cycle;Signal;HPM_P1;HPM_P2
2023/11/24 00:00:42;;;;;;;13.25;5.43;;;6.70;99.90;;;;;;5047688;28;20480;-71
2023/11/24 00:03:09;;;;;;;8.95;5.47;;;6.70;99.90;;;;;;5047243;28;20049;-71
2023/11/24 00:05:38;;;;;;;9.07;5.45;;;6.60;99.90;;;;;;5033194;28;20049;-72
2023/11/24 00:08:04;;;;;;;7.85;5.15;;;6.60;99.90;;;;;;5020709;28;20550;-72
2023/11/24 00:10:31;;;;;;;18.15;6.40;;;6.60;99.90;;;;;;5005955;28;20041;-72
2023/11/24 00:12:58;;;;;;;8.75;4.25;;;6.50;99.90;;;;;;5036700;28;20080;-72
2023/11/24 00:15:25;;;;;;;11.85;5.38;;;6.50;99.90;;;;;;5022114;28;21818;-72
2023/11/24 00:17:52;;;;;;;12.02;5.43;;;6.50;99.90;;;;;;5007917;28;20068;-73
2023/11/24 00:20:25;;;;;;;18.60;5.38;;;6.60;99.90;;;;;;5019270;28;20049;-72
2023/11/24 00:22:52;;;;;;;11.10;4.63;;;6.60;99.90;;;;;;5025507;28;20073;-72
2023/11/24 00:25:19;;;;;;;13.63;5.25;;;6.60;99.90;;;;;;5018367;28;20062;-71
2023/11/24 00:27:46;;;;;;;23.60;5.88;;;6.50;99.90;;;;;;5009837;28;20045;-73
2023/11/24 00:30:12;;;;;;;12.90;5.07;;;6.50;99.90;;;;;;5022594;28;20077;-73
2023/11/24 00:32:39;;;;;;;13.63;4.45;;;6.50;99.90;;;;;;5021796;28;20092;-72
2023/11/24 00:35:07;;;;;;;17.75;4.60;;;6.50;99.90;;;;;;5012676;28;20830;-72
2023/11/24 00:37:34;;;;;;;17.65;4.70;;;6.60;99.90;;;;;;5023894;28;20041;-73
2023/11/24 00:40:07;;;;;;;17.67;4.80;;;6.50;99.90;;;;;;5028548;28;20080;-73
2023/11/24 00:42:35;;;;;;;11.55;4.45;;;6.50;99.90;;;;;;5017670;28;20052;-72
2023/11/24 00:45:03;;;;;;;16.77;4.63;;;6.50;99.90;;;;;;5007279;28;20049;-72
2023/11/24 00:47:30;;;;;;;15.95;4.43;;;6.50;99.90;;;;;;5007679;28;20037;-72
2023/11/24 00:49:57;;;;;;;13.23;4.40;;;6.40;99.90;;;;;;5027378;28;20550;-73
2023/11/24 00:52:26;;;;;;;13.52;4.38;;;6.40;99.90;;;;;;5014083;28;20109;-76
2023/11/24 00:54:54;;;;;;;26.63;5.10;;;6.50;99.90;;;;;;5026849;28;20114;-74
2023/11/24 00:57:21;;;;;;;16.00;5.18;;;6.50;99.90;;;;;;5022705;28;20041;-73
2023/11/24 00:59:50;;;;;;;14.63;4.50;;;6.50;99.90;;;;;;5022970;28;20049;-73
2023/11/24 01:02:17;;;;;;;13.48;4.70;;;6.40;99.90;;;;;;5026225;28;20087;-72
2023/11/24 01:04:44;;;;;;;18.70;5.38;;;6.40;99.90;;;;;;5006262;28;20041;-73
2023/11/24 01:07:11;;;;;;;12.73;6.72;;;6.30;99.90;;;;;;5025995;28;20041;-75
2023/11/24 01:09:38;;;;;;;16.90;6.57;;;6.30;99.90;;;;;;5025871;28;21183;-74
2023/11/24 01:12:05;;;;;;;17.13;6.45;;;6.40;99.90;;;;;;5013790;28;20068;-73
2023/11/24 01:14:31;;;;;;;17.48;6.85;;;6.40;99.90;;;;;;5026253;28;20044;-75
2023/11/24 01:17:00;;;;;;;16.67;6.88;;;6.40;99.90;;;;;;5027805;28;20428;-73
2023/11/24 01:19:27;;;;;;;11.02;6.45;;;6.50;99.90;;;;;;5024199;28;20135;-75
2023/11/24 01:21:54;;;;;;;13.13;7.88;;;6.40;99.90;;;;;;5024436;28;20200;-74
2023/11/24 01:24:21;;;;;;;10.18;6.70;;;6.50;99.90;;;;;;5023934;28;20136;-74
2023/11/24 01:26:51;;;;;;;17.30;6.90;;;6.40;99.90;;;;;;5030665;28;20056;-75
2023/11/24 01:29:18;;;;;;;21.83;7.85;;;6.40;99.90;;;;;;5026736;28;20729;-75
2023/11/24 01:31:47;;;;;;;19.75;8.30;;;6.40;99.90;;;;;;5008890;28;20045;-74
2023/11/24 01:34:14;;;;;;;15.55;8.80;;;6.50;99.90;;;;;;5029429;28;20040;-74
2023/11/24 01:36:44;;;;;;;15.65;8.23;;;6.50;99.90;;;;;;5023690;28;20041;-75
2023/11/24 01:39:12;;;;;;;14.73;7.68;;;6.50;99.90;;;;;;5030315;28;20140;-74
2023/11/24 01:41:40;;;;;;;13.90;5.97;;;6.50;99.90;;;;;;5021128;28;20053;-73
2023/11/24 01:44:08;;;;;;;20.85;6.30;;;6.40;99.90;;;;;;5013436;28;20042;-73
2023/11/24 01:46:35;;;;;;;15.82;6.43;;;6.30;99.90;;;;;;5010905;28;20055;-73
2023/11/24 01:49:04;;;;;;;14.77;6.20;;;6.30;99.90;;;;;;5025777;28;20124;-73
2023/11/24 01:51:33;;;;;;;9.15;5.63;;;6.30;99.90;;;;;;5012199;28;20061;-73
2023/11/24 01:54:00;;;;;;;10.57;6.47;;;6.20;99.90;;;;;;5029363;28;20572;-73
2023/11/24 01:56:28;;;;;;;8.27;5.35;;;6.10;99.90;;;;;;5028157;28;20162;-74
2023/11/24 01:58:54;;;;;;;8.68;6.00;;;6.10;99.90;;;;;;5048139;28;20089;-74
2023/11/24 02:01:24;;;;;;;11.73;6.50;;;6.10;99.90;;;;;;5025212;28;20045;-72
2023/11/24 02:03:51;;;;;;;14.45;6.28;;;6.10;99.90;;;;;;5032514;28;20041;-74
2023/11/24 02:06:19;;;;;;;31.98;6.35;;;6.10;99.90;;;;;;5025971;28;20037;-74
2023/11/24 02:08:47;;;;;;;12.43;6.15;;;6.20;99.90;;;;;;5016666;28;20049;-74
2023/11/24 02:11:14;;;;;;;13.18;5.53;;;6.10;99.90;;;;;;5022394;28;20502;-74
2023/11/24 02:13:46;;;;;;;14.73;5.85;;;6.10;99.90;;;;;;5016140;28;20056;-75
2023/11/24 02:16:13;;;;;;;18.63;5.90;;;6.10;99.90;;;;;;5026109;28;20042;-74
2023/11/24 02:18:40;;;;;;;20.33;6.80;;;6.10;99.90;;;;;;5028655;28;20107;-73
2023/11/24 02:21:08;;;;;;;7.63;4.93;;;6.00;99.90;;;;;;5018986;28;20037;-74
2023/11/24 02:23:35;;;;;;;16.38;5.93;;;6.10;99.90;;;;;;5016843;28;20045;-75
2023/11/24 02:26:05;;;;;;;15.95;6.22;;;6.10;99.90;;;;;;5030976;28;20128;-74
2023/11/24 02:28:32;;;;;;;21.25;5.82;;;6.10;99.90;;;;;;5015722;28;20746;-75
2023/11/24 02:31:01;;;;;;;14.20;5.32;;;6.00;99.90;;;;;;5032605;28;20053;-74
2023/11/24 02:33:29;;;;;;;12.10;5.38;;;6.10;99.90;;;;;;5016674;28;20041;-74
2023/11/24 02:35:57;;;;;;;22.20;5.72;;;6.10;99.90;;;;;;5029789;28;20068;-75
2023/11/24 02:38:24;;;;;;;14.35;6.80;;;6.00;99.90;;;;;;5011282;28;20478;-74
2023/11/24 02:40:51;;;;;;;20.27;6.40;;;6.00;99.90;;;;;;5026920;28;20584;-75
2023/11/24 02:43:18;;;;;;;9.75;6.35;;;6.00;99.90;;;;;;5030067;28;20068;-75
2023/11/24 02:45:45;;;;;;;15.73;6.35;;;5.90;99.90;;;;;;5031483;28;20590;-75
2023/11/24 02:48:12;;;;;;;19.90;6.90;;;5.90;99.90;;;;;;5012275;28;20053;-75
2023/11/24 02:50:39;;;;;;;12.90;6.15;;;5.90;99.90;;;;;;5026662;28;20036;-76
2023/11/24 02:53:06;;;;;;;21.52;7.90;;;5.80;99.90;;;;;;5028613;28;20594;-75
2023/11/24 02:55:33;;;;;;;14.00;6.55;;;5.80;99.90;;;;;;5027836;28;20533;-75
2023/11/24 02:58:01;;;;;;;12.27;6.07;;;5.70;99.90;;;;;;5028129;28;20080;-75
2023/11/24 03:00:36;;;;;;;11.23;6.30;;;5.70;99.90;;;;;;5032785;28;20065;-75
2023/11/24 03:03:17;;;;;;;13.40;6.40;;;5.70;99.90;;;;;;5014777;28;20041;-77
2023/11/24 03:05:46;;;;;;;12.85;5.80;;;5.60;99.90;;;;;;5015272;28;20112;-74
2023/11/24 03:08:13;;;;;;;11.10;6.20;;;5.60;99.90;;;;;;5011354;28;20492;-75
2023/11/24 03:10:41;;;;;;;9.93;5.90;;;5.60;99.90;;;;;;5012429;28;20033;-76
2023/11/24 03:13:08;;;;;;;14.02;7.20;;;5.60;99.90;;;;;;5015227;28;20126;-76
2023/11/24 03:15:35;;;;;;;11.82;6.20;;;5.60;99.90;;;;;;5031126;28;20072;-76
2023/11/24 03:18:02;;;;;;;14.65;6.07;;;5.60;99.90;;;;;;5016592;28;20040;-75
2023/11/24 03:20:30;;;;;;;11.85;5.68;;;5.50;99.90;;;;;;5030449;28;20079;-76
2023/11/24 03:22:57;;;;;;;14.15;6.47;;;5.50;99.90;;;;;;5031775;28;20038;-76
2023/11/24 03:25:24;;;;;;;12.07;6.55;;;5.40;99.90;;;;;;5017110;28;20145;-75
2023/11/24 03:27:51;;;;;;;14.40;6.05;;;5.50;99.90;;;;;;5033068;28;20041;-75
2023/11/24 03:30:19;;;;;;;10.00;6.95;;;5.50;99.90;;;;;;5032170;28;20033;-77
2023/11/24 03:32:47;;;;;;;16.35;7.32;;;5.40;99.90;;;;;;5028412;28;20559;-75
2023/11/24 03:35:14;;;;;;;11.95;7.20;;;5.40;99.90;;;;;;5035570;28;20459;-75
2023/11/24 03:37:40;;;;;;;14.95;7.60;;;5.50;99.90;;;;;;5019199;28;20679;-75
2023/11/24 03:40:09;;;;;;;12.48;6.70;;;5.50;99.90;;;;;;5011490;28;20848;-75
2023/11/24 03:42:36;;;;;;;16.20;6.95;;;5.50;99.90;;;;;;5015657;28;20271;-75
2023/11/24 03:45:04;;;;;;;18.98;7.35;;;5.50;99.90;;;;;;5028160;28;20049;-73
2023/11/24 03:47:31;;;;;;;12.88;5.35;;;5.50;99.90;;;;;;5029262;28;20103;-72
2023/11/24 03:50:01;;;;;;;9.65;4.90;;;5.40;99.90;;;;;;5012602;28;20209;-71
2023/11/24 03:52:28;;;;;;;11.80;5.00;;;5.40;99.90;;;;;;5025608;28;20045;-71
2023/11/24 03:54:54;;;;;;;24.35;6.82;;;5.30;99.90;;;;;;5050733;28;20045;-71
2023/11/24 03:57:21;;;;;;;19.25;4.72;;;5.30;99.90;;;;;;5019400;28;20053;-72
2023/11/24 03:59:48;;;;;;;16.55;6.13;;;5.30;99.90;;;;;;5032010;28;20049;-73
2023/11/24 04:02:15;;;;;;;10.40;4.03;;;5.30;99.90;;;;;;5034878;28;20590;-72
2023/11/24 04:04:43;;;;;;;9.73;5.38;;;5.20;99.90;;;;;;5028627;28;20076;-73
2023/11/24 04:07:10;;;;;;;19.65;5.32;;;5.20;99.90;;;;;;5028404;28;20055;-73
2023/11/24 04:09:37;;;;;;;10.88;4.65;;;5.20;99.90;;;;;;5026788;28;20083;-72
2023/11/24 04:12:04;;;;;;;18.10;5.03;;;5.20;99.90;;;;;;5031340;28;20060;-72
2023/11/24 04:14:30;;;;;;;20.75;5.38;;;5.20;99.90;;;;;;5017601;28;20040;-73
2023/11/24 04:16:57;;;;;;;20.48;5.50;;;5.20;99.90;;;;;;5029152;28;20052;-74
2023/11/24 04:19:27;;;;;;;20.55;4.63;;;5.30;99.90;;;;;;5029052;28;20136;-71
2023/11/24 04:21:55;;;;;;;10.23;4.30;;;5.30;99.90;;;;;;5015689;28;20060;-73
2023/11/24 04:24:23;;;;;;;14.63;4.10;;;5.30;99.90;;;;;;5016858;28;20049;-73
2023/11/24 04:26:50;;;;;;;6.70;3.75;;;5.30;99.90;;;;;;5028502;28;20053;-73
2023/11/24 04:29:21;;;;;;;16.45;4.38;;;5.30;99.90;;;;;;5028482;28;20450;-73
2023/11/24 04:31:48;;;;;;;11.40;3.83;;;5.40;99.90;;;;;;5015516;28;20045;-73
2023/11/24 04:34:15;;;;;;;16.98;4.32;;;5.40;99.90;;;;;;5028522;28;20045;-73
2023/11/24 04:36:42;;;;;;;13.50;3.58;;;5.30;99.90;;;;;;5022473;28;20821;-74
2023/11/24 04:39:09;;;;;;;8.18;3.75;;;5.30;99.90;;;;;;5028449;28;20049;-73
2023/11/24 04:41:37;;;;;;;16.73;5.35;;;5.30;99.90;;;;;;5027747;28;20046;-74
2023/11/24 04:44:04;;;;;;;18.42;4.57;;;5.30;99.90;;;;;;5027019;28;20131;-74
2023/11/24 04:46:30;;;;;;;18.75;5.07;;;5.30;99.90;;;;;;5011004;28;20044;-72
2023/11/24 04:49:03;;;;;;;25.20;4.97;;;5.30;99.90;;;;;;5021474;28;20140;-74
2023/11/24 04:51:34;;;;;;;10.60;3.97;;;5.30;99.90;;;;;;5025855;28;20037;-73
2023/11/24 04:54:03;;;;;;;14.93;5.05;;;5.30;99.90;;;;;;5027248;28;20041;-73
2023/11/24 04:56:31;;;;;;;17.67;4.97;;;5.30;99.90;;;;;;5027716;28;20560;-74
2023/11/24 04:58:57;;;;;;;17.17;4.43;;;5.30;99.90;;;;;;5031657;28;20695;-72
2023/11/24 05:01:24;;;;;;;16.15;3.72;;;5.30;99.90;;;;;;5032205;28;20818;-74
2023/11/24 05:03:57;;;;;;;13.63;3.83;;;5.30;99.90;;;;;;5023992;28;20532;-74
2023/11/24 05:06:25;;;;;;;16.00;3.83;;;5.30;99.90;;;;;;5022324;28;20044;-73
2023/11/24 05:08:52;;;;;;;19.73;5.13;;;5.30;99.90;;;;;;5012946;28;20268;-74
2023/11/24 05:11:19;;;;;;;12.75;4.57;;;5.40;99.90;;;;;;5046170;28;20041;-74
2023/11/24 05:13:47;;;;;;;14.43;4.78;;;5.30;99.90;;;;;;5029120;28;20103;-73
2023/11/24 05:16:14;;;;;;;14.68;3.63;;;5.30;99.90;;;;;;5026369;28;20041;-74
2023/11/24 05:18:41;;;;;;;14.85;3.78;;;5.30;99.90;;;;;;5027654;28;20627;-74
2023/11/24 05:21:08;;;;;;;16.38;4.38;;;5.30;99.90;;;;;;5023709;28;20043;-74
2023/11/24 05:23:38;;;;;;;21.17;4.50;;;5.30;99.90;;;;;;5013805;28;20041;-74
2023/11/24 05:26:06;;;;;;;15.90;4.72;;;5.30;99.90;;;;;;5046531;28;20041;-74
2023/11/24 05:28:34;;;;;;;15.52;5.07;;;5.30;99.90;;;;;;5024336;28;20044;-73
2023/11/24 05:31:03;;;;;;;18.20;4.60;;;5.30;99.90;;;;;;5028198;28;20551;-74
2023/11/24 05:33:32;;;;;;;19.27;5.82;;;5.40;99.90;;;;;;5030088;28;20053;-74
2023/11/24 05:35:59;;;;;;;11.98;4.65;;;5.30;99.90;;;;;;5022955;28;20688;-73
2023/11/24 05:38:26;;;;;;;11.07;3.80;;;5.30;99.90;;;;;;5026089;28;20030;-74
2023/11/24 05:40:52;;;;;;;17.50;3.95;;;5.30;99.90;;;;;;5025600;28;20053;-75
2023/11/24 05:43:19;;;;;;;9.30;4.30;;;5.30;99.90;;;;;;5027547;28;20042;-74
2023/11/24 05:45:47;;;;;;;10.10;3.88;;;5.30;99.90;;;;;;5024652;28;20159;-75
2023/11/24 05:48:13;;;;;;;11.30;3.60;;;5.30;99.90;;;;;;5024851;28;20078;-75
2023/11/24 05:50:43;;;;;;;19.15;5.00;;;5.30;99.90;;;;;;5022758;28;20511;-74
2023/11/24 05:53:10;;;;;;;16.10;4.38;;;5.30;99.90;;;;;;5029012;28;20072;-74
2023/11/24 05:55:37;;;;;;;15.35;4.63;;;5.20;99.90;;;;;;5024383;28;20775;-75
2023/11/24 05:58:08;;;;;;;17.65;5.22;;;5.20;99.90;;;;;;5028206;28;20532;-74
2023/11/24 06:00:35;;;;;;;19.52;4.03;;;5.20;99.90;;;;;;5025931;28;20210;-74
2023/11/24 06:03:02;;;;;;;22.35;4.25;;;5.20;99.90;;;;;;5029314;28;20068;-75
2023/11/24 06:05:30;;;;;;;13.90;4.38;;;5.20;99.90;;;;;;5028622;28;20273;-75
2023/11/24 06:07:58;;;;;;;15.25;4.78;;;5.20;99.90;;;;;;5026604;28;20450;-75
2023/11/24 06:10:24;;;;;;;15.82;3.78;;;5.30;99.90;;;;;;5011894;28;20157;-75
2023/11/24 06:12:51;;;;;;;12.63;4.32;;;5.20;99.90;;;;;;5031363;28;20124;-76
2023/11/24 06:15:18;;;;;;;20.38;4.47;;;5.20;99.90;;;;;;5025235;28;20136;-76
2023/11/24 06:17:48;;;;;;;7.47;3.95;;;5.20;99.90;;;;;;5011885;28;20048;-75
2023/11/24 06:20:18;;;;;;;12.93;4.85;;;5.20;99.90;;;;;;5022499;28;20432;-73
2023/11/24 06:22:45;;;;;;;15.32;4.45;;;5.20;99.90;;;;;;5028832;28;20057;-75
2023/11/24 06:25:13;;;;;;;20.20;5.03;;;5.20;99.90;;;;;;5029789;28;20068;-75
2023/11/24 06:27:43;;;;;;;25.77;4.20;;;5.20;99.90;;;;;;5029964;28;20040;-74
2023/11/24 06:30:10;;;;;;;13.80;3.78;;;5.10;99.90;;;;;;5010787;28;20087;-73
2023/11/24 06:32:37;;;;;;;14.68;4.10;;;5.10;99.90;;;;;;5010602;28;20052;-75
2023/11/24 06:35:09;;;;;;;20.98;4.35;;;5.10;99.90;;;;;;5030672;28;20049;-74
2023/11/24 06:37:37;;;;;;;12.10;4.00;;;5.10;99.90;;;;;;5029249;28;20122;-74
2023/11/24 06:40:05;;;;;;;12.57;3.92;;;5.10;99.90;;;;;;5026859;28;20033;-72
2023/11/24 06:42:32;;;;;;;14.23;4.97;;;5.00;99.90;;;;;;5016016;28;20136;-73
2023/11/24 06:44:59;;;;;;;13.10;4.20;;;5.00;99.90;;;;;;5011974;28;20033;-74
2023/11/24 06:47:26;;;;;;;20.77;5.65;;;5.00;99.90;;;;;;5024785;28;20048;-74
2023/11/24 06:49:53;;;;;;;11.55;3.65;;;5.00;99.90;;;;;;5024915;28;20120;-75
2023/11/24 06:52:20;;;;;;;10.18;3.15;;;5.00;99.90;;;;;;5026141;28;20033;-74
2023/11/24 06:54:47;;;;;;;16.40;4.03;;;5.00;99.90;;;;;;5027682;28;20047;-74
2023/11/24 06:57:14;;;;;;;15.90;4.13;;;4.90;99.90;;;;;;5024015;28;20033;-73
2023/11/24 06:59:42;;;;;;;13.32;4.82;;;4.90;99.90;;;;;;5026035;28;20045;-74
2023/11/24 07:02:08;;;;;;;11.40;5.70;;;4.80;99.90;;;;;;5021108;28;20119;-73
2023/11/24 07:04:36;;;;;;;18.10;5.45;;;4.80;99.90;;;;;;5028069;28;20049;-73
2023/11/24 07:07:03;;;;;;;15.55;5.03;;;4.80;99.90;;;;;;5026924;28;20036;-73
2023/11/24 07:09:30;;;;;;;13.18;5.90;;;4.80;99.90;;;;;;5023873;28;20040;-74
2023/11/24 07:11:58;;;;;;;20.95;4.97;;;4.80;99.90;;;;;;5020726;28;20102;-74
2023/11/24 07:14:25;;;;;;;16.27;4.53;;;4.80;99.90;;;;;;5021578;28;20480;-74
2023/11/24 07:16:52;;;;;;;12.43;6.00;;;4.80;99.90;;;;;;5025449;28;20506;-74
2023/11/24 07:19:21;;;;;;;19.90;4.32;;;4.90;99.90;;;;;;5025908;28;20097;-73
2023/11/24 07:21:48;;;;;;;12.15;4.30;;;4.80;99.90;;;;;;5008719;28;20052;-71
2023/11/24 07:24:15;;;;;;;23.60;4.68;;;4.80;99.90;;;;;;5021342;28;20052;-71
2023/11/24 07:26:42;;;;;;;11.07;5.65;;;4.80;99.90;;;;;;5019339;28;20049;-71
2023/11/24 07:29:08;;;;;;;12.00;4.47;;;4.80;99.90;;;;;;5018697;28;20052;-73
2023/11/24 07:31:35;;;;;;;32.35;5.72;;;4.80;99.90;;;;;;5005619;28;20055;-71
2023/11/24 07:34:03;;;;;;;24.25;5.95;;;4.80;99.90;;;;;;5021411;28;20062;-74
2023/11/24 07:36:31;;;;;;;24.95;5.97;;;4.80;99.90;;;;;;5007667;28;20077;-72
2023/11/24 07:38:58;;;;;;;12.13;6.10;;;4.80;99.90;;;;;;5021497;28;20045;-73
2023/11/24 07:41:25;;;;;;;16.33;5.35;;;4.70;99.90;;;;;;5021706;28;20436;-73
2023/11/24 07:43:52;;;;;;;15.90;5.65;;;4.70;99.90;;;;;;5023603;28;20080;-74
2023/11/24 07:46:18;;;;;;;13.20;5.45;;;4.70;99.90;;;;;;5026366;28;20320;-73
2023/11/24 07:48:45;;;;;;;17.27;7.72;;;4.70;99.90;;;;;;5020744;28;20072;-72
2023/11/24 07:51:12;;;;;;;10.90;5.28;;;4.70;99.90;;;;;;5045902;28;20063;-72
2023/11/24 07:53:39;;;;;;;13.52;4.85;;;4.70;99.90;;;;;;5043784;28;20060;-72
2023/11/24 07:56:06;;;;;;;19.48;4.03;;;4.70;99.90;;;;;;5017757;28;20167;-74
2023/11/24 07:58:33;;;;;;;14.05;4.53;;;4.60;99.90;;;;;;5012965;28;20049;-73
2023/11/24 08:01:00;;;;;;;17.58;4.35;;;4.60;99.90;;;;;;5026128;28;20055;-72
2023/11/24 08:03:28;;;;;;;9.98;4.78;;;4.60;99.90;;;;;;5025596;28;20495;-69
2023/11/24 08:05:55;;;;;;;8.02;3.45;;;4.50;99.90;;;;;;5022614;28;20045;-73
2023/11/24 08:08:22;;;;;;;8.98;4.20;;;4.50;99.90;;;;;;5043937;28;20053;-74
2023/11/24 08:10:49;;;;;;;12.88;4.65;;;4.50;99.90;;;;;;5021747;28;20053;-73
2023/11/24 08:13:17;;;;;;;21.88;5.22;;;4.60;99.90;;;;;;5025046;28;20037;-71
2023/11/24 08:15:44;;;;;;;17.38;6.60;;;4.70;99.90;;;;;;5022095;28;20045;-72
2023/11/24 08:18:11;;;;;;;10.27;4.93;;;4.70;99.90;;;;;;5033344;28;20504;-72
2023/11/24 08:20:37;;;;;;;12.20;4.55;;;4.70;99.90;;;;;;5013482;28;20083;-72
2023/11/24 08:23:05;;;;;;;11.60;3.25;;;4.70;99.90;;;;;;5013218;28;20056;-71
2023/11/24 08:25:32;;;;;;;12.85;4.65;;;4.70;99.90;;;;;;5027026;28;20049;-73
2023/11/24 08:27:58;;;;;;;20.23;5.43;;;4.70;99.90;;;;;;5025115;28;20049;-72
2023/11/24 08:30:26;;;;;;;17.92;6.20;;;4.60;99.90;;;;;;5026978;28;20041;-72
2023/11/24 08:32:52;;;;;;;6.93;4.78;;;4.50;99.90;;;;;;5022150;28;20071;-72
2023/11/24 08:35:20;;;;;;;15.82;6.00;;;4.40;99.90;;;;;;5028593;28;20550;-71
2023/11/24 08:37:46;;;;;;;12.90;4.72;;;4.40;99.90;;;;;;5026035;28;20431;-71
2023/11/24 08:40:16;;;;;;;12.60;5.20;;;4.40;99.90;;;;;;5028747;28;20420;-72
2023/11/24 08:42:44;;;;;;;11.50;5.05;;;4.40;99.90;;;;;;5025951;28;20697;-69
2023/11/24 08:45:16;;;;;;;18.92;4.88;;;4.40;99.90;;;;;;5025843;28;20047;-72
2023/11/24 08:47:44;;;;;;;12.73;5.57;;;4.40;99.90;;;;;;5022051;28;20058;-69
2023/11/24 08:50:13;;;;;;;11.57;4.78;;;4.50;99.90;;;;;;5026109;28;20123;-71
2023/11/24 08:52:40;;;;;;;12.43;6.15;;;4.50;99.90;;;;;;5014912;28;20094;-72
2023/11/24 08:55:08;;;;;;;12.77;4.95;;;4.50;99.90;;;;;;5020973;28;20096;-70
2023/11/24 08:57:35;;;;;;;16.30;5.95;;;4.50;99.90;;;;;;5025275;28;20049;-72
2023/11/24 09:00:05;;;;;;;17.45;5.55;;;4.50;99.90;;;;;;5024016;28;21589;-72
2023/11/24 09:02:33;;;;;;;12.52;4.97;;;4.50;99.90;;;;;;5021140;28;20099;-72
2023/11/24 09:05:00;;;;;;;8.38;4.50;;;4.50;99.90;;;;;;5008794;28;20756;-71
2023/11/24 09:07:27;;;;;;;6.85;3.95;;;4.40;99.90;;;;;;5024514;28;20042;-71
2023/11/24 09:09:56;;;;;;;8.50;4.03;;;4.40;99.90;;;;;;5020924;28;20757;-71
2023/11/24 09:12:22;;;;;;;6.40;3.55;;;4.30;99.90;;;;;;5006679;28;20053;-72
2023/11/24 09:14:49;;;;;;;5.90;3.33;;;4.20;99.90;;;;;;5029892;28;20037;-71
2023/11/24 09:17:16;;;;;;;7.35;3.60;;;4.10;99.90;;;;;;5027288;28;20722;-72
2023/11/24 09:19:45;;;;;;;7.82;3.88;;;4.10;99.90;;;;;;5025828;28;20048;-71
2023/11/24 09:22:14;;;;;;;10.13;5.18;;;4.00;99.90;;;;;;5027199;28;20033;-71
2023/11/24 09:24:41;;;;;;;8.15;4.57;;;4.00;99.90;;;;;;5016239;28;20041;-72
2023/11/24 09:27:08;;;;;;;8.93;4.82;;;4.10;99.90;;;;;;5023238;28;20037;-72
2023/11/24 09:29:34;;;;;;;9.35;4.70;;;4.10;99.90;;;;;;5025386;28;20049;-70
2023/11/24 09:32:01;;;;;;;10.70;4.75;;;4.20;99.90;;;;;;5004962;28;20126;-71
2023/11/24 09:34:28;;;;;;;7.95;4.35;;;4.30;99.90;;;;;;5022195;28;20080;-73
2023/11/24 09:36:55;;;;;;;10.65;5.75;;;4.20;99.90;;;;;;5003260;28;20563;-71
2023/11/24 09:39:26;;;;;;;4.90;4.50;;;4.30;99.90;;;;;;5023933;28;20053;-72
2023/11/24 09:41:54;;;;;;;8.07;5.40;;;4.30;99.90;;;;;;5022813;28;20056;-71
2023/11/24 09:44:21;;;;;;;10.70;4.65;;;4.30;99.90;;;;;;5029116;28;20041;-70
2023/11/24 09:46:49;;;;;;;13.23;5.25;;;4.30;99.90;;;;;;5024751;28;20546;-72
2023/11/24 09:49:22;;;;;;;14.55;6.10;;;4.40;99.90;;;;;;5029208;28;20052;-72
2023/11/24 09:51:49;;;;;;;7.35;4.75;;;4.50;99.90;;;;;;5014068;28;20053;-73
2023/11/24 09:54:17;;;;;;;5.10;3.75;;;4.50;99.90;;;;;;5030113;28;20040;-72
2023/11/24 09:56:45;;;;;;;5.00;3.30;;;4.40;99.90;;;;;;5027473;28;20049;-72
2023/11/24 09:59:13;;;;;;;8.32;3.17;;;4.30;99.90;;;;;;5006711;28;20709;-72
2023/11/24 10:01:40;;;;;;;5.38;3.80;;;4.20;99.90;;;;;;5027295;28;20144;-72
2023/11/24 10:04:09;;;;;;;5.28;4.10;;;4.20;99.90;;;;;;5022993;28;21751;-73
2023/11/24 10:06:41;;;;;;;8.00;3.65;;;4.30;99.90;;;;;;5024295;28;20146;-71
2023/11/24 10:09:10;;;;;;;5.10;3.78;;;4.30;99.90;;;;;;5022971;28;20554;-73
2023/11/24 10:11:38;;;;;;;6.45;3.88;;;4.30;99.90;;;;;;5009549;28;20110;-73
2023/11/24 10:14:12;;;;;;;7.65;3.63;;;4.20;99.90;;;;;;5026005;28;20045;-73
2023/11/24 10:16:41;;;;;;;5.10;4.60;;;4.10;99.90;;;;;;5023861;28;20044;-71
2023/11/24 10:19:14;;;;;;;7.53;4.25;;;4.10;99.90;;;;;;5024596;28;21141;-72
2023/11/24 10:21:47;;;;;;;9.50;4.88;;;4.10;99.90;;;;;;5026010;28;20046;-72
2023/11/24 10:24:14;;;;;;;10.15;4.40;;;4.10;99.90;;;;;;5032563;28;20140;-72
2023/11/24 10:26:44;;;;;;;5.47;4.15;;;4.10;99.90;;;;;;5026516;28;20197;-71
2023/11/24 10:29:11;;;;;;;6.63;3.95;;;4.10;99.90;;;;;;5021883;28;20148;-71
2023/11/24 10:31:38;;;;;;;10.65;4.03;;;4.10;99.90;;;;;;5024651;28;20456;-72
2023/11/24 10:34:06;;;;;;;9.10;4.45;;;4.10;99.90;;;;;;5023782;28;20053;-71
2023/11/24 10:36:35;;;;;;;5.50;4.22;;;4.10;99.90;;;;;;5027592;28;20103;-71
2023/11/24 10:39:08;;;;;;;9.23;4.55;;;4.10;99.90;;;;;;5023742;28;20044;-72
2023/11/24 10:41:42;;;;;;;8.40;6.07;;;4.10;99.90;;;;;;5028657;28;20041;-72
2023/11/24 10:44:12;;;;;;;11.32;4.20;;;4.10;99.90;;;;;;5024616;28;20824;-73
2023/11/24 10:46:43;;;;;;;6.18;4.70;;;4.10;99.90;;;;;;5025021;28;20077;-72
2023/11/24 10:49:24;;;;;;;10.23;5.40;;;4.10;99.90;;;;;;5026101;28;20171;-71
2023/11/24 10:52:03;;;;;;;19.42;5.60;;;4.10;99.90;;;;;;5018454;28;20511;-70
2023/11/24 10:54:34;;;;;;;12.27;5.38;;;4.10;99.90;;;;;;5024407;28;20068;-73
2023/11/24 10:57:05;;;;;;;13.98;6.05;;;4.10;99.90;;;;;;5024008;28;20437;-71
2023/11/24 10:59:34;;;;;;;11.90;4.93;;;4.00;99.90;;;;;;5017933;28;20104;-72
2023/11/24 11:02:06;;;;;;;9.13;4.97;;;4.00;99.90;;;;;;5020513;28;20095;-71
2023/11/24 11:04:35;;;;;;;11.65;4.38;;;4.10;99.90;;;;;;5021085;28;20508;-73
2023/11/24 11:07:32;;;;;;;9.30;5.07;;;4.10;99.90;;;;;;5017955;28;20080;-75
2023/11/24 11:10:28;;;;;;;16.63;6.82;;;4.00;99.90;;;;;;5020486;28;20057;-74
2023/11/24 11:12:57;;;;;;;11.48;4.80;;;4.10;99.90;;;;;;5022327;28;20041;-73
2023/11/24 11:15:25;;;;;;;10.10;4.38;;;4.10;99.90;;;;;;5041713;28;20671;-74
2023/11/24 11:18:15;;;;;;;11.27;4.68;;;4.10;99.90;;;;;;5024117;28;20053;-73
2023/11/24 11:20:44;;;;;;;5.70;3.65;;;4.00;99.90;;;;;;5007720;28;20323;-73
2023/11/24 11:23:17;;;;;;;7.15;5.18;;;3.70;99.90;;;;;;5019297;28;20049;-74
2023/11/24 11:25:50;;;;;;;6.68;6.03;;;3.40;99.90;;;;;;5042415;28;20045;-74
2023/11/24 11:28:17;;;;;;;8.90;8.20;;;3.30;99.90;;;;;;5026250;28;20144;-73
2023/11/24 11:30:50;;;;;;;5.93;5.63;;;3.30;99.90;;;;;;5011872;28;20044;-73
2023/11/24 11:33:20;;;;;;;9.15;6.28;;;3.40;99.90;;;;;;5042182;28;20045;-73
2023/11/24 11:35:51;;;;;;;6.30;5.13;;;3.50;99.90;;;;;;5024218;28;20600;-74
2023/11/24 11:38:45;;;;;;;5.63;5.13;;;3.60;99.90;;;;;;5012657;28;20045;-76
2023/11/24 11:41:32;;;;;;;7.10;6.00;;;3.70;99.90;;;;;;5021610;28;20048;-74
2023/11/24 11:43:59;;;;;;;7.22;4.25;;;3.80;99.90;;;;;;5013016;28;20053;-74
2023/11/24 11:47:10;;;;;;;5.78;4.03;;;3.70;99.90;;;;;;5043184;28;20051;-73
2023/11/24 11:49:41;;;;;;;10.10;5.50;;;3.70;99.90;;;;;;5050061;28;20043;-74
2023/11/24 11:52:11;;;;;;;9.13;6.28;;;3.70;99.90;;;;;;5031379;28;20140;-74
2023/11/24 11:54:39;;;;;;;7.82;6.03;;;3.70;99.90;;;;;;5034386;28;20539;-74
2023/11/24 11:57:07;;;;;;;10.23;6.90;;;3.70;99.90;;;;;;5030656;28;20068;-75
2023/11/24 11:59:34;;;;;;;10.70;6.10;;;3.70;99.90;;;;;;5024936;28;20037;-74
2023/11/24 12:02:02;;;;;;;13.60;5.97;;;3.80;99.90;;;;;;5013409;28;20033;-74
2023/11/24 12:04:30;;;;;;;10.40;4.95;;;3.80;99.90;;;;;;5032035;28;20037;-75
2023/11/24 12:06:57;;;;;;;20.20;5.93;;;3.80;99.90;;;;;;5023078;28;20169;-74
2023/11/24 12:09:25;;;;;;;11.65;4.95;;;4.00;99.90;;;;;;5027896;28;20037;-75
2023/11/24 12:11:52;;;;;;;13.32;5.13;;;4.00;99.90;;;;;;5013788;28;20041;-74
2023/11/24 12:14:20;;;;;;;13.23;4.80;;;4.00;99.90;;;;;;5017342;28;20037;-74
2023/11/24 12:16:46;;;;;;;11.77;5.00;;;4.00;99.90;;;;;;5026739;28;20123;-75
2023/11/24 12:19:14;;;;;;;11.57;4.72;;;4.10;99.90;;;;;;5014730;28;20126;-74
2023/11/24 12:21:42;;;;;;;17.67;4.78;;;4.10;99.90;;;;;;5048998;28;20037;-75
2023/11/24 12:24:09;;;;;;;10.75;5.82;;;4.10;99.90;;;;;;5012134;28;20523;-74
2023/11/24 12:26:44;;;;;;;10.68;4.50;;;4.10;99.90;;;;;;5027497;28;20106;-74
2023/11/24 12:29:13;;;;;;;13.88;5.15;;;4.20;99.90;;;;;;5013047;28;20124;-74
2023/11/24 12:31:43;;;;;;;14.52;6.53;;;4.10;99.90;;;;;;5029692;28;20056;-75
2023/11/24 12:34:20;;;;;;;12.85;5.30;;;4.20;99.90;;;;;;5026274;28;20124;-75
2023/11/24 12:36:48;;;;;;;9.68;5.60;;;4.20;99.90;;;;;;5030551;28;20041;-74
2023/11/24 12:39:15;;;;;;;14.73;5.68;;;4.20;99.90;;;;;;5010102;28;20063;-73
2023/11/24 12:41:43;;;;;;;11.07;5.28;;;4.20;99.90;;;;;;5027303;28;20048;-73
2023/11/24 12:44:14;;;;;;;11.73;6.00;;;4.20;99.90;;;;;;5026648;28;20041;-73
2023/11/24 12:46:41;;;;;;;18.02;5.78;;;4.30;99.90;;;;;;5026720;28;20052;-74
2023/11/24 12:49:09;;;;;;;14.63;5.97;;;4.30;99.90;;;;;;5023209;28;20041;-76
2023/11/24 12:51:41;;;;;;;12.75;5.53;;;4.30;99.90;;;;;;5011718;28;21684;-75
2023/11/24 12:54:08;;;;;;;9.10;5.13;;;4.40;99.90;;;;;;5024002;28;20682;-76